createdAt,value
2016-04-23T00:00:47.732Z,0
2016-04-23T00:01:47.719Z,0
2016-04-23T00:02:47.722Z,0
2016-04-23T00:03:47.724Z,0
2016-04-23T00:04:47.712Z,0
2016-04-23T00:05:47.793Z,0
2016-04-23T00:06:47.749Z,0
2016-04-23T00:07:47.735Z,0
2016-04-23T00:08:47.723Z,0
2016-04-23T00:09:47.725Z,0
2016-04-23T00:10:47.729Z,0
2016-04-23T00:11:47.715Z,0
2016-04-23T00:12:47.734Z,0
2016-04-23T00:13:47.720Z,0
2016-04-23T00:14:47.723Z,0
2016-04-23T00:15:47.726Z,0
2016-04-23T00:16:47.759Z,0
2016-04-23T00:17:47.809Z,0
2016-04-23T00:18:47.750Z,0
2016-04-23T00:19:47.737Z,0
2016-04-23T00:20:47.817Z,0
2016-04-23T00:21:47.773Z,0
2016-04-23T00:22:47.761Z,0
2016-04-23T00:23:47.778Z,0
2016-04-23T00:24:47.750Z,0
2016-04-23T00:25:47.769Z,0
2016-04-23T00:26:47.771Z,0
2016-04-23T00:27:47.758Z,0
2016-04-23T00:28:47.777Z,0
2016-04-23T00:29:47.763Z,0
2016-04-23T00:30:47.844Z,0
2016-04-23T00:31:47.800Z,0
2016-04-23T00:32:47.772Z,0
2016-04-23T00:33:47.774Z,0
2016-04-23T00:34:47.761Z,0
2016-04-23T00:35:47.827Z,0
2016-04-23T00:36:47.798Z,0
2016-04-23T00:37:47.785Z,0
2016-04-23T00:38:47.788Z,0
2016-04-23T00:39:47.806Z,0
2016-04-23T00:40:47.824Z,0
2016-04-23T00:41:47.780Z,0
2016-04-23T00:42:47.782Z,0
2016-04-23T00:43:47.785Z,0
2016-04-23T00:44:47.788Z,0
2016-04-23T00:45:47.838Z,0
2016-04-23T00:46:47.793Z,0
2016-04-23T00:47:47.828Z,0
2016-04-23T00:48:47.784Z,0
2016-04-23T00:49:47.770Z,0
2016-04-23T00:50:47.789Z,0
2016-04-23T00:51:47.822Z,0
2016-04-23T00:52:47.779Z,0
2016-04-23T00:53:47.812Z,0
2016-04-23T00:54:47.800Z,0
2016-04-23T00:55:47.817Z,0
2016-04-23T00:56:47.789Z,0
2016-04-23T00:57:47.823Z,0
2016-04-23T00:58:47.794Z,0
2016-04-23T00:59:47.797Z,0
2016-04-23T01:00:47.847Z,0
2016-04-23T01:01:47.834Z,0
2016-04-23T01:02:47.868Z,0
2016-04-23T01:03:47.838Z,0
2016-04-23T01:04:47.826Z,0
2016-04-23T01:05:47.908Z,0
2016-04-23T01:06:47.816Z,0
2016-04-23T01:07:47.818Z,0
2016-04-23T01:08:47.853Z,0
2016-04-23T01:09:47.855Z,0
2016-04-23T01:10:47.905Z,0
2016-04-23T01:11:47.813Z,0
2016-04-23T01:12:47.692Z,0
2016-04-23T01:13:47.851Z,0
2016-04-23T01:14:47.821Z,0
2016-04-23T01:15:47.903Z,0
2016-04-23T01:16:47.826Z,0
2016-04-23T01:17:47.846Z,0
2016-04-23T01:18:47.832Z,0
2016-04-23T01:19:47.820Z,0
2016-04-23T01:20:47.917Z,0
2016-04-23T01:21:47.841Z,0
2016-04-23T01:22:47.812Z,0
2016-04-23T01:23:47.861Z,0
2016-04-23T01:24:47.881Z,0
2016-04-23T01:25:47.851Z,0
2016-04-23T01:26:47.839Z,0
2016-04-23T01:27:47.825Z,0
2016-04-23T01:28:47.859Z,0
2016-04-23T01:29:47.847Z,0
2016-04-23T01:30:47.880Z,0
2016-04-23T01:31:47.867Z,0
2016-04-23T01:32:47.620Z,0
2016-04-23T01:33:47.858Z,0
2016-04-23T01:34:47.844Z,0
2016-04-23T01:35:47.863Z,0
2016-04-23T01:36:47.866Z,0
2016-04-23T01:37:47.883Z,0
2016-04-23T01:38:47.855Z,0
2016-04-23T01:39:47.843Z,0
2016-04-23T01:40:47.923Z,0
2016-04-23T01:41:47.863Z,0
2016-04-23T01:42:47.851Z,0
2016-04-23T01:43:47.868Z,0
2016-04-23T01:44:47.871Z,0
2016-04-23T01:45:47.905Z,0
2016-04-23T01:46:47.862Z,0
2016-04-23T01:47:47.879Z,0
2016-04-23T01:48:47.867Z,0
2016-04-23T01:49:47.870Z,0
2016-04-23T01:50:47.950Z,0
2016-04-23T01:51:47.890Z,0
2016-04-23T01:52:47.877Z,0
2016-04-23T01:53:47.865Z,0
2016-04-23T01:54:47.867Z,0
2016-04-23T01:55:47.931Z,0
2016-04-23T01:56:47.889Z,0
2016-04-23T01:57:47.875Z,0
2016-04-23T01:58:47.925Z,0
2016-04-23T01:59:47.880Z,0
2016-04-23T02:00:47.884Z,0
2016-04-23T02:01:47.902Z,0
2016-04-23T02:02:47.763Z,0
2016-04-23T02:03:47.891Z,0
2016-04-23T02:04:47.877Z,0
2016-04-23T02:05:47.975Z,0
2016-04-23T02:06:47.899Z,0
2016-04-23T02:07:47.886Z,0
2016-04-23T02:08:47.889Z,0
2016-04-23T02:09:47.877Z,0
2016-04-23T02:10:47.926Z,0
2016-04-23T02:11:47.881Z,0
2016-04-23T02:12:47.900Z,0
2016-04-23T02:13:47.918Z,0
2016-04-23T02:14:47.905Z,0
2016-04-23T02:15:47.939Z,0
2016-04-23T02:16:47.895Z,0
2016-04-23T02:17:47.913Z,0
2016-04-23T02:18:47.900Z,0
2016-04-23T02:19:47.887Z,0
2016-04-23T02:20:47.953Z,0
2016-04-23T02:21:47.768Z,0
2016-04-23T02:22:47.936Z,0
2016-04-23T02:23:47.908Z,0
2016-04-23T02:24:47.942Z,0
2016-04-23T02:25:47.991Z,0
2016-04-23T02:26:47.900Z,0
2016-04-23T02:27:47.918Z,0
2016-04-23T02:28:47.922Z,0
2016-04-23T02:29:47.924Z,0
2016-04-23T02:30:48.005Z,0
2016-04-23T02:31:47.914Z,0
2016-04-23T02:32:47.932Z,0
2016-04-23T02:33:47.935Z,0
2016-04-23T02:34:47.937Z,0
2016-04-23T02:35:47.955Z,0
2016-04-23T02:36:47.927Z,0
2016-04-23T02:37:47.930Z,0
2016-04-23T02:38:47.948Z,0
2016-04-23T02:39:47.779Z,0
2016-04-23T02:40:48.063Z,0
2016-04-23T02:41:47.925Z,0
2016-04-23T02:42:47.943Z,0
2016-04-23T02:43:47.962Z,0
2016-04-23T02:44:47.949Z,0
2016-04-23T02:45:47.951Z,0
2016-04-23T02:46:47.939Z,0
2016-04-23T02:47:47.988Z,0
2016-04-23T02:48:47.928Z,0
2016-04-23T02:49:47.947Z,0
2016-04-23T02:50:47.917Z,0
2016-04-23T02:51:47.953Z,0
2016-04-23T02:52:47.970Z,0
2016-04-23T02:53:47.972Z,0
2016-04-23T02:54:47.945Z,0
2016-04-23T02:55:47.978Z,0
2016-04-23T02:56:47.981Z,0
2016-04-23T02:57:47.936Z,0
2016-04-23T02:58:47.956Z,0
2016-04-23T02:59:47.974Z,0
2016-04-23T03:00:47.976Z,0
2016-04-23T03:01:47.963Z,0
2016-04-23T03:02:47.825Z,0
2016-04-23T03:03:47.969Z,0
2016-04-23T03:04:47.971Z,0
2016-04-23T03:05:47.990Z,0
2016-04-23T03:06:48.008Z,0
2016-04-23T03:07:47.979Z,0
2016-04-23T03:08:47.982Z,0
2016-04-23T03:09:47.969Z,0
2016-04-23T03:10:47.957Z,0
2016-04-23T03:11:47.990Z,0
2016-04-23T03:12:47.992Z,0
2016-04-23T03:13:47.980Z,0
2016-04-23T03:14:47.967Z,0
2016-04-23T03:15:48.078Z,0
2016-04-23T03:16:48.004Z,0
2016-04-23T03:17:47.990Z,0
2016-04-23T03:18:47.978Z,0
2016-04-23T03:19:47.981Z,0
2016-04-23T03:20:48.046Z,0
2016-04-23T03:21:47.986Z,0
2016-04-23T03:22:48.004Z,0
2016-04-23T03:23:47.975Z,0
2016-04-23T03:24:47.978Z,0
2016-04-23T03:25:47.996Z,0
2016-04-23T03:26:47.983Z,0
2016-04-23T03:27:47.987Z,0
2016-04-23T03:28:47.989Z,0
2016-04-23T03:29:47.992Z,0
2016-04-23T03:30:47.994Z,0
2016-04-23T03:31:47.997Z,0
2016-04-23T03:32:47.875Z,0
2016-04-23T03:33:48.002Z,0
2016-04-23T03:34:48.005Z,0
2016-04-23T03:35:48.039Z,0
2016-04-23T03:36:48.011Z,0
2016-04-23T03:37:48.013Z,0
2016-04-23T03:38:48.000Z,0
2016-04-23T03:39:47.988Z,0
2016-04-23T03:40:48.021Z,0
2016-04-23T03:41:47.992Z,0
2016-04-23T03:42:47.995Z,0
2016-04-23T03:43:47.999Z,0
2016-04-23T03:44:47.985Z,0
2016-04-23T03:45:48.082Z,0
2016-04-23T03:46:48.006Z,0
2016-04-23T03:47:47.853Z,0
2016-04-23T03:48:47.996Z,0
2016-04-23T03:49:47.998Z,0
2016-04-23T03:50:48.048Z,0
2016-04-23T03:51:48.035Z,0
2016-04-23T03:52:48.023Z,0
2016-04-23T03:53:48.009Z,0
2016-04-23T03:54:48.012Z,0
2016-04-23T03:55:48.002Z,0
2016-04-23T03:56:48.037Z,0
2016-04-23T03:57:48.040Z,0
2016-04-23T03:58:47.995Z,0
2016-04-23T03:59:47.999Z,0
2016-04-23T04:00:48.047Z,0
2016-04-23T04:01:48.004Z,0
2016-04-23T04:02:48.038Z,0
2016-04-23T04:03:48.009Z,0
2016-04-23T04:04:48.011Z,0
2016-04-23T04:05:48.045Z,0
2016-04-23T04:06:48.017Z,0
2016-04-23T04:07:48.035Z,0
2016-04-23T04:08:48.023Z,0
2016-04-23T04:09:48.025Z,0
2016-04-23T04:10:48.074Z,0
2016-04-23T04:11:48.015Z,0
2016-04-23T04:12:48.033Z,0
2016-04-23T04:13:48.020Z,0
2016-04-23T04:14:48.039Z,0
2016-04-23T04:15:48.119Z,0
2016-04-23T04:16:48.013Z,0
2016-04-23T04:17:47.937Z,0
2016-04-23T04:18:48.018Z,0
2016-04-23T04:19:48.021Z,0
2016-04-23T04:20:48.116Z,0
2016-04-23T04:21:48.041Z,0
2016-04-23T04:22:48.029Z,0
2016-04-23T04:23:47.891Z,0
2016-04-23T04:24:48.035Z,0
2016-04-23T04:25:47.880Z,0
2016-04-23T04:26:48.040Z,0
2016-04-23T04:27:47.870Z,0
2016-04-23T04:28:48.060Z,0
2016-04-23T04:29:48.032Z,5
2016-04-23T04:30:48.035Z,5
2016-04-23T04:31:48.038Z,5
2016-04-23T04:32:48.040Z,5
2016-04-23T04:33:48.027Z,5
2016-04-23T04:34:48.029Z,5
2016-04-23T04:35:48.142Z,5
2016-04-23T04:36:48.409Z,5
2016-04-23T04:37:48.053Z,5
2016-04-23T04:38:48.040Z,5
2016-04-23T04:39:48.043Z,10
2016-04-23T04:40:48.046Z,10
2016-04-23T04:41:48.267Z,10
2016-04-23T04:42:48.036Z,10
2016-04-23T04:43:48.038Z,15
2016-04-23T04:44:47.884Z,15
2016-04-23T04:45:48.044Z,15
2016-04-23T04:46:48.031Z,15
2016-04-23T04:47:47.300Z,20
2016-04-23T04:48:48.036Z,20
2016-04-23T04:49:48.055Z,20
2016-04-23T04:50:48.057Z,25
2016-04-23T04:51:48.028Z,25
2016-04-23T04:52:48.062Z,25
2016-04-23T04:53:48.049Z,25
2016-04-23T04:54:48.052Z,30
2016-04-23T04:55:48.055Z,30
2016-04-23T04:56:48.042Z,30
2016-04-23T04:57:48.060Z,30
2016-04-23T04:58:48.063Z,30
2016-04-23T04:59:48.034Z,30
2016-04-23T05:00:47.349Z,35
2016-04-23T05:01:48.071Z,35
2016-04-23T05:02:48.058Z,35
2016-04-23T05:03:48.061Z,35
2016-04-23T05:04:48.048Z,40
2016-04-23T05:05:48.051Z,40
2016-04-23T05:06:48.068Z,40
2016-04-23T05:07:48.041Z,40
2016-04-23T05:08:48.058Z,40
2016-04-23T05:09:47.905Z,40
2016-04-23T05:10:48.095Z,40
2016-04-23T05:11:48.067Z,40
2016-04-23T05:12:48.069Z,40
2016-04-23T05:13:48.072Z,40
2016-04-23T05:14:48.059Z,40
2016-04-23T05:15:48.093Z,40
2016-04-23T05:16:48.064Z,40
2016-04-23T05:17:48.130Z,40
2016-04-23T05:18:48.070Z,40
2016-04-23T05:19:48.073Z,40
2016-04-23T05:20:48.075Z,45
2016-04-23T05:21:48.063Z,45
2016-04-23T05:22:48.080Z,45
2016-04-23T05:23:48.068Z,45
2016-04-23T05:24:48.070Z,45
2016-04-23T05:25:48.119Z,45
2016-04-23T05:26:48.076Z,45
2016-04-23T05:27:48.079Z,50
2016-04-23T05:28:48.097Z,50
2016-04-23T05:29:48.068Z,50
2016-04-23T05:30:47.930Z,50
2016-04-23T05:31:48.073Z,50
2016-04-23T05:32:48.076Z,55
2016-04-23T05:33:48.079Z,55
2016-04-23T05:34:48.082Z,60
2016-04-23T05:35:48.115Z,60
2016-04-23T05:36:48.087Z,65
2016-04-23T05:37:48.090Z,65
2016-04-23T05:38:48.108Z,65
2016-04-23T05:39:48.079Z,70
2016-04-23T05:40:48.129Z,70
2016-04-23T05:41:48.117Z,70
2016-04-23T05:42:48.103Z,70
2016-04-23T05:43:48.137Z,70
2016-04-23T05:44:48.078Z,70
2016-04-23T05:45:48.111Z,70
2016-04-23T05:46:48.114Z,70
2016-04-23T05:47:48.116Z,70
2016-04-23T05:48:48.104Z,70
2016-04-23T05:49:47.341Z,70
2016-04-23T05:50:48.172Z,70
2016-04-23T05:51:48.159Z,70
2016-04-23T05:52:48.083Z,70
2016-04-23T05:53:48.133Z,70
2016-04-23T05:54:48.151Z,70
2016-04-23T05:55:48.138Z,75
2016-04-23T05:56:48.110Z,70
2016-04-23T05:57:48.096Z,75
2016-04-23T05:58:48.115Z,75
2016-04-23T05:59:48.102Z,80
2016-04-23T06:00:48.152Z,80
2016-04-23T06:01:48.107Z,85
2016-04-23T06:02:48.110Z,85
2016-04-23T06:03:48.096Z,85
2016-04-23T06:04:48.116Z,85
2016-04-23T06:05:48.118Z,85
2016-04-23T06:06:48.168Z,85
2016-04-23T06:07:48.108Z,85
2016-04-23T06:08:48.157Z,85
2016-04-23T06:09:48.113Z,80
2016-04-23T06:10:48.131Z,80
2016-04-23T06:11:48.150Z,75
2016-04-23T06:12:48.137Z,75
2016-04-23T06:13:48.139Z,70
2016-04-23T06:14:48.142Z,70
2016-04-23T06:15:48.176Z,70
2016-04-23T06:16:48.132Z,65
2016-04-23T06:17:48.150Z,65
2016-04-23T06:18:48.137Z,65
2016-04-23T06:19:48.171Z,65
2016-04-23T06:20:48.206Z,65
2016-04-23T06:21:48.178Z,65
2016-04-23T06:22:48.148Z,70
2016-04-23T06:23:48.167Z,70
2016-04-23T06:24:48.138Z,70
2016-04-23T06:25:48.172Z,70
2016-04-23T06:26:48.174Z,75
2016-04-23T06:27:48.177Z,75
2016-04-23T06:28:48.164Z,80
2016-04-23T06:29:48.136Z,80
2016-04-23T06:30:48.169Z,90
2016-04-23T06:31:47.407Z,85
2016-04-23T06:32:48.144Z,90
2016-04-23T06:33:48.177Z,95
2016-04-23T06:34:48.196Z,95
2016-04-23T06:35:48.151Z,95
2016-04-23T06:36:48.030Z,95
2016-04-23T06:37:48.174Z,95
2016-04-23T06:38:48.145Z,100
2016-04-23T06:39:48.163Z,100
2016-04-23T06:40:48.165Z,100
2016-04-23T06:41:48.168Z,105
2016-04-23T06:42:48.186Z,105
2016-04-23T06:43:48.173Z,105
2016-04-23T06:44:48.192Z,100
2016-04-23T06:45:48.179Z,100
2016-04-23T06:46:48.166Z,95
2016-04-23T06:47:48.169Z,95
2016-04-23T06:48:48.156Z,95
2016-04-23T06:49:48.189Z,100
2016-04-23T06:50:48.161Z,100
2016-04-23T06:51:48.179Z,105
2016-04-23T06:52:48.183Z,105
2016-04-23T06:53:48.201Z,110
2016-04-23T06:54:48.188Z,110
2016-04-23T06:55:48.237Z,115
2016-04-23T06:56:48.193Z,115
2016-04-23T06:57:48.196Z,120
2016-04-23T06:58:48.214Z,120
2016-04-23T06:59:48.169Z,120
2016-04-23T07:00:48.282Z,125
2016-04-23T07:01:48.191Z,130
2016-04-23T07:02:48.210Z,135
2016-04-23T07:03:48.040Z,140
2016-04-23T07:04:48.183Z,145
2016-04-23T07:05:48.107Z,155
2016-04-23T07:06:48.204Z,165
2016-04-23T07:07:48.018Z,175
2016-04-23T07:08:48.210Z,190
2016-04-23T07:09:48.182Z,190
2016-04-23T07:10:48.277Z,200
2016-04-23T07:11:48.187Z,220
2016-04-23T07:12:48.204Z,230
2016-04-23T07:13:48.207Z,245
2016-04-23T07:14:48.195Z,275
2016-04-23T07:15:48.275Z,310
2016-04-23T07:16:48.200Z,305
2016-04-23T07:17:48.218Z,310
2016-04-23T07:18:48.190Z,350
2016-04-23T07:19:48.239Z,365
2016-04-23T07:20:48.289Z,375
2016-04-23T07:21:48.088Z,375
2016-04-23T07:22:48.216Z,380
2016-04-23T07:23:48.219Z,370
2016-04-23T07:24:48.237Z,350
2016-04-23T07:25:48.208Z,340
2016-04-23T07:26:48.258Z,310
2016-04-23T07:27:48.291Z,310
2016-04-23T07:28:48.247Z,325
2016-04-23T07:29:48.235Z,325
2016-04-23T07:30:48.253Z,330
2016-04-23T07:31:48.255Z,310
2016-04-23T07:32:48.227Z,295
2016-04-23T07:33:48.293Z,290
2016-04-23T07:34:48.279Z,285
2016-04-23T07:35:48.266Z,265
2016-04-23T07:36:48.238Z,255
2016-04-23T07:37:48.241Z,250
2016-04-23T07:38:48.290Z,235
2016-04-23T07:39:48.277Z,215
2016-04-23T07:40:48.326Z,205
2016-04-23T07:41:48.299Z,205
2016-04-23T07:42:47.627Z,215
2016-04-23T07:43:48.393Z,225
2016-04-23T07:44:48.440Z,230
2016-04-23T07:45:48.595Z,230
2016-04-23T07:46:48.511Z,230
2016-04-23T07:47:48.545Z,230
2016-04-23T07:48:48.611Z,235
2016-04-23T07:49:48.583Z,245
2016-04-23T07:50:48.634Z,260
2016-04-23T07:51:48.613Z,265
2016-04-23T07:52:48.606Z,275
2016-04-23T07:53:48.646Z,285
2016-04-23T07:54:48.638Z,285
2016-04-23T07:55:48.662Z,285
2016-04-23T07:56:48.684Z,280
2016-04-23T07:57:48.704Z,275
2016-04-23T07:58:48.647Z,270
2016-04-23T07:59:48.666Z,270
2016-04-23T08:00:48.781Z,270
2016-04-23T08:01:48.674Z,270
2016-04-23T08:02:48.677Z,270
2016-04-23T08:03:48.667Z,270
2016-04-23T08:04:48.685Z,275
2016-04-23T08:05:48.721Z,275
2016-04-23T08:06:48.676Z,275
2016-04-23T08:07:48.695Z,280
2016-04-23T08:08:48.698Z,275
2016-04-23T08:09:48.700Z,270
2016-04-23T08:10:48.736Z,270
2016-04-23T08:11:48.706Z,270
2016-04-23T08:12:48.694Z,275
2016-04-23T08:13:48.759Z,285
2016-04-23T08:14:48.700Z,290
2016-04-23T08:15:48.764Z,300
2016-04-23T08:16:48.736Z,305
2016-04-23T08:17:48.722Z,310
2016-04-23T08:18:48.617Z,310
2016-04-23T08:19:48.728Z,310
2016-04-23T08:20:48.777Z,305
2016-04-23T08:21:48.702Z,305
2016-04-23T08:22:48.705Z,305
2016-04-23T08:23:48.724Z,310
2016-04-23T08:24:48.726Z,305
2016-04-23T08:25:48.730Z,305
2016-04-23T08:26:48.716Z,300
2016-04-23T08:27:48.766Z,295
2016-04-23T08:28:48.893Z,290
2016-04-23T08:29:48.745Z,275
2016-04-23T08:30:48.747Z,255
2016-04-23T08:31:48.766Z,245
2016-04-23T08:32:48.753Z,220
2016-04-23T08:33:48.646Z,200
2016-04-23T08:34:48.742Z,185
2016-04-23T08:35:48.761Z,170
2016-04-23T08:36:48.889Z,165
2016-04-23T08:37:48.812Z,160
2016-04-23T08:38:48.770Z,150
2016-04-23T08:39:48.772Z,140
2016-04-23T08:40:48.805Z,130
2016-04-23T08:41:48.778Z,120
2016-04-23T08:42:48.795Z,110
2016-04-23T08:43:48.797Z,100
2016-04-23T08:44:48.645Z,95
2016-04-23T08:45:48.881Z,95
2016-04-23T08:46:48.805Z,95
2016-04-23T08:47:48.793Z,95
2016-04-23T08:48:48.797Z,95
2016-04-23T08:49:48.799Z,90
2016-04-23T08:50:48.879Z,85
2016-04-23T08:51:48.789Z,75
2016-04-23T08:52:48.807Z,70
2016-04-23T08:53:49.465Z,60
2016-04-23T08:54:48.796Z,55
2016-04-23T08:55:48.893Z,55
2016-04-23T08:56:48.786Z,50
2016-04-23T08:57:48.805Z,50
2016-04-23T08:58:48.869Z,50
2016-04-23T08:59:48.794Z,55
2016-04-23T09:00:48.906Z,65
2016-04-23T09:01:48.815Z,70
2016-04-23T09:02:48.818Z,80
2016-04-23T09:03:48.711Z,85
2016-04-23T09:04:48.807Z,90
2016-04-23T09:05:48.810Z,90
2016-04-23T09:06:48.845Z,95
2016-04-23T09:07:48.831Z,90
2016-04-23T09:08:49.631Z,90
2016-04-23T09:09:48.805Z,85
2016-04-23T09:10:48.839Z,80
2016-04-23T09:11:48.811Z,80
2016-04-23T09:12:48.814Z,80
2016-04-23T09:13:48.878Z,80
2016-04-23T09:14:48.834Z,80
2016-04-23T09:15:48.822Z,75
2016-04-23T09:16:48.808Z,75
2016-04-23T09:17:48.811Z,75
2016-04-23T09:18:48.861Z,75
2016-04-23T09:19:48.833Z,75
2016-04-23T09:20:48.850Z,75
2016-04-23T09:21:48.885Z,75
2016-04-23T09:22:48.902Z,75
2016-04-23T09:23:48.827Z,75
2016-04-23T09:24:48.658Z,75
2016-04-23T09:25:48.880Z,70
2016-04-23T09:26:48.820Z,65
2016-04-23T09:27:48.697Z,65
2016-04-23T09:28:48.809Z,65
2016-04-23T09:29:49.016Z,65
2016-04-23T09:30:48.955Z,70
2016-04-23T09:31:48.818Z,70
2016-04-23T09:32:48.836Z,65
2016-04-23T09:33:49.323Z,65
2016-04-23T09:34:53.701Z,70
2016-04-23T09:35:48.829Z,75
2016-04-23T09:36:48.846Z,80
2016-04-23T09:37:48.849Z,80
2016-04-23T09:38:48.836Z,85
2016-04-23T09:39:49.104Z,85
2016-04-23T09:40:48.889Z,85
2016-04-23T09:41:49.095Z,80
2016-04-23T09:42:48.941Z,75
2016-04-23T09:43:48.740Z,70
2016-04-23T09:44:48.587Z,70
2016-04-23T09:45:48.839Z,70
2016-04-23T09:46:48.827Z,70
2016-04-23T09:47:48.861Z,70
2016-04-23T09:48:48.676Z,70
2016-04-23T09:49:48.851Z,75
2016-04-23T09:50:48.853Z,80
2016-04-23T09:51:48.841Z,80
2016-04-23T09:52:48.827Z,80
2016-04-23T09:53:48.846Z,80
2016-04-23T09:54:48.833Z,80
2016-04-23T09:55:48.882Z,75
2016-04-23T09:56:48.838Z,75
2016-04-23T09:57:48.857Z,70
2016-04-23T09:58:48.859Z,70
2016-04-23T09:59:48.096Z,70
2016-04-23T10:00:48.833Z,70
2016-04-23T10:01:48.868Z,65
2016-04-23T10:02:48.839Z,60
2016-04-23T10:03:48.091Z,55
2016-04-23T10:04:48.859Z,50
2016-04-23T10:05:49.065Z,50
2016-04-23T10:06:49.537Z,45
2016-04-23T10:07:48.915Z,50
2016-04-23T10:08:48.995Z,60
2016-04-23T10:09:48.842Z,65
2016-04-23T10:10:48.876Z,65
2016-04-23T10:11:49.706Z,60
2016-04-23T10:12:49.272Z,55
2016-04-23T10:13:48.853Z,40
2016-04-23T10:14:48.823Z,35
2016-04-23T10:15:49.780Z,35
2016-04-23T10:16:48.861Z,40
2016-04-23T10:17:48.691Z,50
2016-04-23T10:18:48.866Z,60
2016-04-23T10:19:48.712Z,70
2016-04-23T10:20:48.872Z,70
2016-04-23T10:21:48.827Z,60
2016-04-23T10:22:48.844Z,60
2016-04-23T10:23:48.836Z,50
2016-04-23T10:24:48.808Z,50
2016-04-23T10:25:48.872Z,50
2016-04-23T10:26:48.844Z,55
2016-04-23T10:27:48.830Z,60
2016-04-23T10:28:48.833Z,60
2016-04-23T10:29:48.836Z,65
2016-04-23T10:30:48.869Z,65
2016-04-23T10:31:48.810Z,65
2016-04-23T10:32:48.813Z,60
2016-04-23T10:33:48.816Z,55
2016-04-23T10:34:50.552Z,50
2016-04-23T10:35:48.837Z,50
2016-04-23T10:36:48.870Z,45
2016-04-23T10:37:48.670Z,45
2016-04-23T10:38:48.813Z,50
2016-04-23T10:39:48.768Z,55
2016-04-23T10:40:48.896Z,60
2016-04-23T10:41:48.837Z,60
2016-04-23T10:42:48.809Z,65
2016-04-23T10:43:48.795Z,70
2016-04-23T10:44:48.798Z,70
2016-04-23T10:45:48.957Z,70
2016-04-23T10:46:48.945Z,70
2016-04-23T10:47:48.869Z,70
2016-04-23T10:48:48.887Z,75
2016-04-23T10:49:48.562Z,75
2016-04-23T10:50:49.049Z,75
2016-04-23T10:51:49.676Z,80
2016-04-23T10:52:49.086Z,75
2016-04-23T10:53:49.228Z,70
2016-04-23T10:54:49.154Z,65
2016-04-23T10:55:49.250Z,65
2016-04-23T10:56:49.002Z,60
2016-04-23T10:57:49.708Z,60
2016-04-23T10:58:49.477Z,60
2016-04-23T10:59:49.495Z,60
2016-04-23T11:00:49.200Z,60
2016-04-23T11:01:50.610Z,60
2016-04-23T11:02:50.893Z,60
2016-04-23T11:03:50.740Z,65
2016-04-23T11:04:52.633Z,65
2016-04-23T11:05:49.730Z,60
2016-04-23T11:06:50.608Z,60
2016-04-23T11:07:50.782Z,60
2016-04-23T11:08:50.816Z,65
2016-04-23T11:09:50.693Z,65
2016-04-23T11:10:50.821Z,70
2016-04-23T11:11:49.590Z,70
2016-04-23T11:12:50.546Z,75
2016-04-23T11:13:51.018Z,70
2016-04-23T11:14:50.628Z,65
2016-04-23T11:15:50.865Z,65
2016-04-23T11:16:50.478Z,65
2016-04-23T11:17:50.653Z,65
2016-04-23T11:18:50.687Z,60
2016-04-23T11:19:49.659Z,60
2016-04-23T11:20:50.192Z,50
2016-04-23T11:21:49.507Z,50
2016-04-23T11:22:49.056Z,60
2016-04-23T11:23:50.247Z,65
2016-04-23T11:24:50.422Z,60
2016-04-23T11:25:51.064Z,65
2016-04-23T11:26:50.974Z,60
2016-04-23T11:27:50.695Z,65
2016-04-23T11:28:50.995Z,75
2016-04-23T11:29:55.247Z,85
2016-04-23T11:30:50.594Z,80
2016-04-23T11:31:50.753Z,85
2016-04-23T11:32:50.443Z,80
2016-04-23T11:33:50.211Z,75
2016-04-23T11:34:50.683Z,70
2016-04-23T11:35:50.280Z,75
2016-04-23T11:36:48.985Z,85
2016-04-23T11:37:49.379Z,90
2016-04-23T11:38:48.882Z,90
2016-04-23T11:39:48.868Z,85
2016-04-23T11:40:49.027Z,80
2016-04-23T11:41:48.967Z,75
2016-04-23T11:42:48.907Z,75
2016-04-23T11:43:49.004Z,65
2016-04-23T11:44:48.991Z,65
2016-04-23T11:45:48.901Z,65
2016-04-23T11:46:49.090Z,65
2016-04-23T11:47:48.998Z,70
2016-04-23T11:48:48.862Z,70
2016-04-23T11:49:49.942Z,75
2016-04-23T11:50:49.132Z,75
2016-04-23T11:51:48.917Z,80
2016-04-23T11:52:48.795Z,75
2016-04-23T11:53:48.922Z,70
2016-04-23T11:54:49.017Z,70
2016-04-23T11:55:49.020Z,65
2016-04-23T11:56:48.883Z,60
2016-04-23T11:57:48.870Z,55
2016-04-23T11:58:48.841Z,55
2016-04-23T11:59:48.891Z,50
2016-04-23T12:00:48.987Z,40
2016-04-23T12:01:48.865Z,30
2016-04-23T12:02:48.883Z,30
2016-04-23T12:03:49.058Z,35
2016-04-23T12:04:48.857Z,35
2016-04-23T12:05:48.829Z,35
2016-04-23T12:06:48.785Z,40
2016-04-23T12:07:48.881Z,40
2016-04-23T12:08:48.805Z,40
2016-04-23T12:09:49.793Z,50
2016-04-23T12:10:51.233Z,55
2016-04-23T12:11:51.610Z,60
2016-04-23T12:12:51.301Z,60
2016-04-23T12:13:51.178Z,65
2016-04-23T12:14:51.243Z,65
2016-04-23T12:15:50.481Z,75
2016-04-23T12:16:50.390Z,75
2016-04-23T12:17:51.564Z,70
2016-04-23T12:18:51.145Z,70
2016-04-23T12:19:49.787Z,70
2016-04-23T12:20:51.120Z,70
2016-04-23T12:21:49.918Z,65
2016-04-23T12:22:50.656Z,55
2016-04-23T12:23:49.517Z,50
2016-04-23T12:24:49.770Z,45
2016-04-23T12:25:49.101Z,45
2016-04-23T12:26:48.823Z,55
2016-04-23T12:27:48.842Z,55
2016-04-23T12:28:48.891Z,50
2016-04-23T12:29:48.783Z,50
2016-04-23T12:30:48.896Z,50
2016-04-23T12:31:48.899Z,45
2016-04-23T12:32:48.792Z,50
2016-04-23T12:33:48.795Z,45
2016-04-23T12:34:48.907Z,50
2016-04-23T12:35:49.831Z,50
2016-04-23T12:36:49.147Z,50
2016-04-23T12:37:48.821Z,50
2016-04-23T12:38:48.902Z,50
2016-04-23T12:39:48.857Z,60
2016-04-23T12:40:48.876Z,65
2016-04-23T12:41:48.816Z,65
2016-04-23T12:42:49.116Z,55
2016-04-23T12:43:48.821Z,55
2016-04-23T12:44:48.949Z,60
2016-04-23T12:45:48.733Z,60
2016-04-23T12:46:49.096Z,55
2016-04-23T12:47:48.848Z,55
2016-04-23T12:48:48.820Z,50
2016-04-23T12:49:48.681Z,50
2016-04-23T12:50:49.075Z,55
2016-04-23T12:51:49.062Z,60
2016-04-23T12:52:48.737Z,55
2016-04-23T12:53:48.848Z,60
2016-04-23T12:54:48.804Z,55
2016-04-23T12:55:48.948Z,55
2016-04-23T12:56:49.028Z,65
2016-04-23T12:57:49.078Z,65
2016-04-23T12:58:48.877Z,70
2016-04-23T12:59:48.895Z,70
2016-04-23T13:00:48.836Z,75
2016-04-23T13:01:48.651Z,70
2016-04-23T13:02:48.591Z,65
2016-04-23T13:03:48.719Z,70
2016-04-23T13:04:49.033Z,60
2016-04-23T13:05:48.833Z,50
2016-04-23T13:07:07.742Z,40
2016-04-23T13:07:48.947Z,40
2016-04-23T13:08:48.731Z,40
2016-04-23T13:09:48.906Z,35
2016-04-23T13:10:48.752Z,40
2016-04-23T13:11:48.817Z,40
2016-04-23T13:12:48.742Z,45
2016-04-23T13:13:48.714Z,40
2016-04-23T13:14:48.498Z,45
2016-04-23T13:15:48.891Z,45
2016-04-23T13:16:48.690Z,50
2016-04-23T13:17:48.771Z,55
2016-04-23T13:18:48.868Z,65
2016-04-23T13:19:49.074Z,70
2016-04-23T13:20:49.670Z,75
2016-04-23T13:21:48.693Z,75
2016-04-23T13:22:48.790Z,80
2016-04-23T13:23:48.715Z,90
2016-04-23T13:24:48.748Z,100
2016-04-23T13:25:48.688Z,110
2016-04-23T13:26:49.551Z,115
2016-04-23T13:27:48.788Z,125
2016-04-23T13:28:48.758Z,125
2016-04-23T13:29:48.667Z,130
2016-04-23T13:30:48.764Z,120
2016-04-23T13:31:48.814Z,110
2016-04-23T13:32:48.800Z,100
2016-04-23T13:33:48.695Z,80
2016-04-23T13:34:50.634Z,75
2016-04-23T13:35:48.793Z,75
2016-04-23T13:36:48.765Z,75
2016-04-23T13:37:48.799Z,75
2016-04-23T13:38:48.863Z,70
2016-04-23T13:39:48.711Z,75
2016-04-23T13:40:48.870Z,80
2016-04-23T13:41:48.732Z,80
2016-04-23T13:42:48.938Z,80
2016-04-23T13:43:48.550Z,75
2016-04-23T13:44:48.583Z,80
2016-04-23T13:45:48.586Z,80
2016-04-23T13:46:48.839Z,85
2016-04-23T13:47:48.577Z,100
2016-04-23T13:48:48.657Z,90
2016-04-23T13:49:48.707Z,95
2016-04-23T13:50:49.741Z,100
2016-04-23T13:51:48.541Z,100
2016-04-23T13:52:48.746Z,105
2016-04-23T13:53:48.608Z,105
2016-04-23T13:54:48.674Z,105
2016-04-23T13:55:48.894Z,110
2016-04-23T13:56:48.632Z,115
2016-04-23T13:57:48.791Z,120
2016-04-23T13:58:48.668Z,105
2016-04-23T13:59:48.655Z,105
2016-04-23T14:00:48.877Z,115
2016-04-23T14:01:48.801Z,110
2016-04-23T14:02:48.679Z,110
2016-04-23T14:03:48.557Z,100
2016-04-23T14:04:48.763Z,85
2016-04-23T14:05:49.062Z,75
2016-04-23T14:06:48.596Z,75
2016-04-23T14:07:48.631Z,75
2016-04-23T14:08:48.679Z,75
2016-04-23T14:09:48.714Z,80
2016-04-23T14:10:48.623Z,75
2016-04-23T14:11:47.998Z,80
2016-04-23T14:12:48.753Z,80
2016-04-23T14:13:48.568Z,75
2016-04-23T14:14:48.837Z,85
2016-04-23T14:15:48.573Z,90
2016-04-23T14:16:48.686Z,90
2016-04-23T14:17:48.658Z,95
2016-04-23T14:18:48.661Z,105
2016-04-23T14:19:48.741Z,115
2016-04-23T14:20:50.134Z,125